Time;durP1;ratioP1;P1;durP2;ratioP2;P2;SDS_P1;SDS_P2;PMS_P1;PMS_P2;Temp;Humidity;BMP_temperature;BMP_pressure;BME280_temperature;BME280_humidity;BME280_pressure;Samples;Min_cycle;Max_cycle;Signal;HPM_P1;HPM_P2
2022/03/21 00:02:08;;;;;;;32.50;18.13;;;10.10;99.90;;;8.54;96.11;101905.75;5010500;28;20140;-77
2022/03/21 00:04:35;;;;;;;31.40;19.27;;;10.10;99.90;;;8.56;97.03;101901.91;5010509;28;20038;-77
2022/03/21 00:07:02;;;;;;;28.60;16.70;;;10.10;99.90;;;8.57;95.75;101906.34;5011112;28;20049;-78
2022/03/21 00:09:31;;;;;;;30.75;18.17;;;10.10;99.90;;;8.60;96.54;101903.38;5010481;28;20070;-77
2022/03/21 00:11:58;;;;;;;29.85;17.80;;;10.00;99.90;;;8.57;95.73;101917.22;5009822;28;20053;-77
2022/03/21 00:14:25;;;;;;;33.08;17.73;;;10.00;99.90;;;8.53;96.62;101904.91;5010755;28;20049;-77
2022/03/21 00:16:53;;;;;;;34.53;17.38;;;10.00;99.90;;;8.47;97.81;101913.56;5010790;28;20046;-78
2022/03/21 00:19:20;;;;;;;37.33;18.88;;;10.00;99.90;;;8.46;97.15;101916.44;5010672;28;20045;-77
2022/03/21 00:21:48;;;;;;;31.50;18.58;;;10.00;99.90;;;8.39;96.77;101921.50;5010582;28;20077;-77
2022/03/21 00:24:15;;;;;;;29.52;17.92;;;10.00;99.90;;;8.25;99.61;101919.19;5010440;28;20046;-77
2022/03/21 00:26:44;;;;;;;34.85;18.77;;;9.90;99.90;;;8.22;99.23;101926.59;5010329;28;20056;-77
2022/03/21 00:29:25;;;;;;;29.08;17.52;;;9.90;99.90;;;8.22;98.89;101921.16;5027055;22;20543;-73
2022/03/21 00:31:57;;;;;;;33.78;17.60;;;9.90;99.90;;;8.29;98.34;101926.03;5010609;28;20096;-75
2022/03/21 00:34:24;;;;;;;30.85;16.95;;;9.90;99.90;;;8.30;97.79;101927.75;5030213;28;20041;-75
2022/03/21 00:36:51;;;;;;;29.23;17.55;;;9.90;99.90;;;8.31;98.19;101930.31;5029908;28;20053;-75
2022/03/21 00:39:19;;;;;;;27.38;17.40;;;9.90;99.90;;;8.35;97.66;101930.91;5030179;28;20038;-75
2022/03/21 00:41:47;;;;;;;29.55;17.90;;;9.90;99.90;;;8.31;98.47;101933.03;5003206;28;20045;-75
2022/03/21 00:44:15;;;;;;;27.02;16.98;;;9.90;99.90;;;8.30;99.09;101930.47;5010446;28;20411;-75
2022/03/21 00:46:42;;;;;;;34.75;17.73;;;9.80;99.90;;;8.19;99.70;101924.13;5017345;28;20069;-75
2022/03/21 00:49:12;;;;;;;29.33;17.15;;;9.80;99.90;;;8.18;98.67;101919.69;5017202;28;20128;-75
2022/03/21 00:51:39;;;;;;;33.03;17.88;;;9.80;99.90;;;8.28;98.48;101921.59;5016151;28;20526;-75
2022/03/21 00:54:06;;;;;;;29.25;17.23;;;9.80;99.90;;;8.29;98.40;101926.03;5030139;28;20069;-75
2022/03/21 00:56:33;;;;;;;31.60;17.88;;;9.80;99.90;;;8.22;98.77;101923.88;5024296;28;20128;-75
2022/03/21 00:59:03;;;;;;;26.15;16.10;;;9.80;99.90;;;8.14;100.00;101929.09;5010381;28;20738;-75
2022/03/21 01:01:30;;;;;;;27.98;17.33;;;9.80;99.90;;;8.14;100.00;101941.78;5019960;28;20048;-75
2022/03/21 01:03:58;;;;;;;28.73;16.98;;;9.80;99.90;;;8.17;100.00;101938.84;4998863;28;20599;-75
2022/03/21 01:06:25;;;;;;;27.73;16.65;;;9.80;99.90;;;8.05;100.00;101940.72;5012376;28;20116;-75
2022/03/21 01:08:52;;;;;;;28.65;16.90;;;9.70;99.90;;;8.04;100.00;101944.44;5029525;28;20574;-75
2022/03/21 01:11:19;;;;;;;30.55;16.92;;;9.70;99.90;;;8.13;99.27;101942.78;5011313;28;20046;-75
2022/03/21 01:13:47;;;;;;;28.00;16.70;;;9.70;99.90;;;8.07;98.90;101927.06;5009362;28;20508;-75
2022/03/21 01:16:15;;;;;;;27.30;16.95;;;9.70;99.90;;;8.10;99.15;101937.63;5009777;28;20041;-75
2022/03/21 01:18:44;;;;;;;32.13;17.00;;;9.70;99.90;;;8.12;98.50;101938.38;5009866;28;20046;-75
2022/03/21 01:21:12;;;;;;;31.00;18.05;;;9.70;99.90;;;8.18;97.86;101929.69;5009346;28;20129;-75
2022/03/21 01:23:39;;;;;;;27.25;15.63;;;9.70;99.90;;;8.13;98.51;101937.34;5028767;28;20045;-75
2022/03/21 01:26:07;;;;;;;26.23;15.55;;;9.70;99.90;;;8.03;98.71;101931.88;5014392;28;20535;-75
2022/03/21 01:28:34;;;;;;;30.05;15.93;;;9.60;99.90;;;8.01;98.99;101923.91;5027394;28;20045;-75
2022/03/21 01:31:01;;;;;;;28.40;17.00;;;9.60;99.90;;;8.05;98.32;101934.47;4999587;28;20046;-75
2022/03/21 01:33:31;;;;;;;27.55;16.45;;;9.60;99.90;;;8.05;98.87;101935.31;4989920;28;20685;-75
2022/03/21 01:35:58;;;;;;;27.88;15.55;;;9.60;99.90;;;8.01;99.57;101940.16;5004056;28;20042;-75
2022/03/21 01:38:25;;;;;;;31.63;16.98;;;9.60;99.90;;;8.01;99.30;101945.59;4996342;28;20137;-75
2022/03/21 01:40:53;;;;;;;30.55;16.42;;;9.60;99.90;;;7.99;99.13;101938.56;5008823;28;20125;-75
2022/03/21 01:43:20;;;;;;;32.70;17.58;;;9.60;99.90;;;8.05;99.43;101945.31;5006636;28;20263;-75
2022/03/21 01:45:47;;;;;;;32.58;17.38;;;9.60;99.90;;;8.10;99.11;101933.06;4989911;28;20116;-75
2022/03/21 01:48:14;;;;;;;29.83;17.42;;;9.60;99.90;;;8.11;99.60;101940.22;4990811;28;20576;-75
2022/03/21 01:50:44;;;;;;;28.60;17.17;;;9.60;99.90;;;8.12;98.92;101931.09;4991284;28;20035;-75
2022/03/21 01:55:57;;;;;;;30.20;16.90;;;9.60;99.90;;;8.14;98.29;101936.38;4969952;28;20401;-75
2022/03/21 01:58:25;;;;;;;28.27;17.73;;;9.60;99.90;;;8.05;99.62;101935.31;4976756;28;20423;-75
2022/03/21 02:00:53;;;;;;;32.25;16.70;;;9.60;99.90;;;8.00;100.00;101926.75;5006049;28;20575;-75
2022/03/21 02:03:21;;;;;;;30.35;17.25;;;9.60;99.90;;;8.05;99.74;101935.31;4982286;28;20537;-75
2022/03/21 02:05:50;;;;;;;31.02;17.27;;;9.60;99.90;;;7.99;99.43;101930.44;5008913;28;20065;-75
2022/03/21 02:08:18;;;;;;;29.15;16.45;;;9.60;99.90;;;8.03;99.32;101924.63;4999732;28;20125;-75
2022/03/21 02:10:51;;;;;;;32.35;18.55;;;9.60;99.90;;;8.03;99.71;101929.16;4988878;28;20053;-75
2022/03/21 02:13:21;;;;;;;31.00;17.83;;;9.60;99.90;;;7.99;100.00;101928.56;4990614;28;20467;-75
2022/03/21 02:15:48;;;;;;;35.05;17.40;;;9.60;99.90;;;7.98;100.00;101924.16;4989585;28;20046;-75
2022/03/21 02:18:18;;;;;;;31.17;16.88;;;9.60;99.90;;;8.02;100.00;101919.34;4979892;28;20651;-75
2022/03/21 02:20:46;;;;;;;32.28;17.48;;;9.50;99.90;;;7.97;99.76;101922.41;5008872;28;20046;-75
2022/03/21 02:23:23;;;;;;;30.98;17.45;;;9.60;99.90;;;7.94;100.00;101919.13;4999224;28;20221;-75
2022/03/21 02:25:54;;;;;;;32.42;17.05;;;9.60;99.90;;;7.91;100.00;101917.53;5012868;28;20125;-75
2022/03/21 02:28:22;;;;;;;27.38;16.02;;;9.60;99.90;;;7.96;100.00;101920.72;5005297;28;20050;-75
2022/03/21 02:30:51;;;;;;;29.67;16.67;;;9.60;99.90;;;7.91;99.73;101912.13;4993240;28;20052;-75
2022/03/21 02:33:19;;;;;;;28.50;16.95;;;9.60;99.90;;;7.79;100.00;101907.78;5003532;28;20046;-74
2022/03/21 02:35:49;;;;;;;30.42;16.58;;;9.60;99.90;;;7.69;100.00;101915.84;4993358;28;20047;-74
2022/03/21 02:38:19;;;;;;;27.67;16.63;;;9.50;99.90;;;7.58;100.00;101916.75;4999432;28;20088;-74
2022/03/21 02:40:47;;;;;;;29.77;17.25;;;9.50;99.90;;;7.49;100.00;101922.09;5010749;28;20131;-73
2022/03/21 02:43:16;;;;;;;29.92;16.60;;;9.40;99.90;;;7.44;100.00;101920.63;5006866;28;20038;-76
2022/03/21 02:45:43;;;;;;;28.80;16.83;;;9.40;99.90;;;7.33;100.00;101912.53;5001538;28;20125;-74
2022/03/21 02:48:13;;;;;;;30.95;16.40;;;9.30;99.90;;;7.40;100.00;101919.13;4999799;28;20050;-74
2022/03/21 02:50:49;;;;;;;31.55;17.15;;;9.30;99.90;;;7.29;100.00;101910.19;4978764;28;20073;-74
2022/03/21 02:53:22;;;;;;;30.77;16.65;;;9.20;99.90;;;7.18;100.00;101911.13;4992682;28;20053;-74
2022/03/21 02:55:54;;;;;;;29.90;16.27;;;9.20;99.90;;;7.08;100.00;101918.28;5001000;28;20034;-74
2022/03/21 02:58:23;;;;;;;31.48;17.45;;;9.20;99.90;;;6.97;100.00;101916.47;5012423;28;20073;-74
2022/03/21 03:00:50;;;;;;;30.52;17.30;;;9.10;99.90;;;6.98;100.00;101913.63;4997646;28;20093;-74
2022/03/21 03:03:17;;;;;;;36.42;17.85;;;9.10;99.90;;;6.95;100.00;101919.31;5005328;28;20073;-74
2022/03/21 03:05:45;;;;;;;28.17;16.60;;;9.00;99.90;;;6.94;100.00;101912.16;4983651;28;20467;-74
2022/03/21 03:08:12;;;;;;;31.95;17.40;;;9.00;99.90;;;6.93;100.00;101915.88;4992953;28;20054;-74
2022/03/21 03:10:39;;;;;;;33.40;17.30;;;9.00;99.90;;;6.88;100.00;101918.06;4991952;28;20425;-74
2022/03/21 03:13:07;;;;;;;27.20;16.13;;;8.90;99.90;;;6.93;100.00;101918.56;4992923;28;20039;-74
2022/03/21 03:15:36;;;;;;;29.38;16.33;;;8.90;99.90;;;6.79;100.00;101919.69;5000065;28;20077;-74
2022/03/21 03:18:04;;;;;;;31.13;16.60;;;8.90;99.90;;;6.75;100.00;101922.78;4992879;28;20054;-73
2022/03/21 03:20:31;;;;;;;27.35;17.45;;;8.90;99.90;;;6.72;100.00;101917.59;5011207;28;20073;-74
2022/03/21 03:23:01;;;;;;;30.35;15.85;;;8.80;99.90;;;6.68;100.00;101916.13;5012073;28;20042;-74
2022/03/21 03:25:28;;;;;;;27.85;16.00;;;8.80;99.90;;;6.64;100.00;101919.09;4994372;28;20126;-74
2022/03/21 03:27:55;;;;;;;30.13;17.13;;;8.80;99.90;;;6.55;100.00;101922.56;5006801;28;20050;-74
2022/03/21 03:30:22;;;;;;;31.30;17.40;;;8.70;99.90;;;6.45;100.00;101922.44;4994336;28;20050;-74
2022/03/21 03:32:51;;;;;;;28.00;16.15;;;8.70;99.90;;;6.42;100.00;101924.53;4992508;28;20118;-74
2022/03/21 03:35:19;;;;;;;32.92;17.90;;;8.60;99.90;;;6.36;100.00;101922.28;5003475;28;20052;-74
2022/03/21 03:37:46;;;;;;;33.65;17.15;;;8.60;99.90;;;6.28;100.00;101919.34;4992066;28;20042;-74
2022/03/21 03:40:14;;;;;;;30.85;17.13;;;8.50;99.90;;;6.29;100.00;101915.66;5010927;28;20148;-74
2022/03/21 03:42:41;;;;;;;29.73;16.90;;;8.50;99.90;;;6.17;100.00;101914.78;5011384;28;20038;-74
2022/03/21 03:45:10;;;;;;;33.17;17.25;;;8.50;99.90;;;6.17;100.00;101915.66;4998247;28;20038;-74
2022/03/21 03:47:37;;;;;;;35.53;17.85;;;8.40;99.90;;;6.15;100.00;101916.75;4992027;28;20129;-74
2022/03/21 03:50:07;;;;;;;30.65;16.67;;;8.40;99.90;;;6.11;100.00;101921.56;4982536;28;20129;-74
2022/03/21 03:52:34;;;;;;;29.63;16.40;;;8.40;99.90;;;6.07;100.00;101928.16;5011390;28;20060;-74
2022/03/21 03:55:02;;;;;;;31.83;17.65;;;8.30;99.90;;;6.04;100.00;101923.00;4991983;28;20048;-74
2022/03/21 03:57:29;;;;;;;32.95;17.33;;;8.20;99.90;;;5.98;100.00;101923.50;4991512;28;20671;-74
2022/03/21 03:59:56;;;;;;;32.97;17.75;;;8.20;99.90;;;6.00;100.00;101921.53;5008809;28;20096;-74
2022/03/21 04:02:23;;;;;;;34.95;18.75;;;8.20;99.90;;;5.95;100.00;101918.28;5008840;28;20381;-74
2022/03/21 04:04:50;;;;;;;36.65;18.38;;;8.20;99.90;;;5.98;100.00;101918.09;5011411;28;20516;-74
2022/03/21 04:07:19;;;;;;;31.80;18.15;;;8.20;99.90;;;5.97;100.00;101921.75;4989211;28;20586;-74
2022/03/21 04:09:46;;;;;;;32.03;18.27;;;8.20;99.90;;;5.94;100.00;101921.97;4991488;28;20137;-74
2022/03/21 04:12:13;;;;;;;34.15;18.40;;;8.10;99.90;;;5.93;100.00;101921.09;5002750;28;20085;-74
2022/03/21 04:14:40;;;;;;;34.28;18.23;;;8.10;99.90;;;6.00;100.00;101926.94;4991562;28;20125;-74
2022/03/21 04:17:07;;;;;;;33.33;18.20;;;8.10;99.90;;;6.01;100.00;101924.09;5000068;28;20100;-76
2022/03/21 04:19:35;;;;;;;34.15;18.70;;;8.10;99.90;;;6.00;100.00;101927.78;5011042;28;20046;-73
2022/03/21 04:22:02;;;;;;;31.00;17.67;;;8.00;99.90;;;5.91;100.00;101939.28;5004234;28;20046;-74
2022/03/21 04:24:30;;;;;;;35.60;17.65;;;8.00;99.90;;;5.76;100.00;101938.63;5010911;28;20526;-74
2022/03/21 04:26:57;;;;;;;36.67;18.77;;;8.00;99.90;;;5.84;100.00;101943.44;5003431;28;20052;-74
2022/03/21 04:29:25;;;;;;;34.65;18.17;;;8.00;99.90;;;5.85;100.00;101939.75;4991063;28;20078;-74
2022/03/21 04:31:52;;;;;;;34.05;17.92;;;8.00;99.90;;;5.71;100.00;101935.41;5003832;28;20093;-74
2022/03/21 04:34:19;;;;;;;32.75;17.77;;;8.00;99.90;;;5.66;100.00;101933.06;4994382;28;20125;-74
2022/03/21 04:36:46;;;;;;;34.70;17.52;;;7.90;99.90;;;5.73;100.00;101941.56;5002940;28;20046;-74
2022/03/21 04:39:18;;;;;;;31.40;17.67;;;8.00;99.90;;;5.80;100.00;101948.19;5010700;28;20122;-74
2022/03/21 04:41:51;;;;;;;30.83;18.60;;;7.90;99.90;;;5.87;100.00;101949.47;4980350;28;20460;-74
2022/03/21 04:44:18;;;;;;;33.50;18.27;;;7.90;99.90;;;5.95;100.00;101948.00;4991246;28;20056;-73
2022/03/21 04:46:45;;;;;;;35.22;18.63;;;8.00;99.90;;;5.98;100.00;101945.13;5007781;28;20045;-74
2022/03/21 04:49:12;;;;;;;32.65;18.02;;;8.00;99.90;;;5.98;100.00;101939.72;5010481;28;20049;-74
2022/03/21 04:51:39;;;;;;;33.20;19.00;;;8.00;99.90;;;6.01;100.00;101943.00;4990734;28;20085;-74
2022/03/21 04:54:07;;;;;;;32.35;18.52;;;8.00;99.90;;;6.12;100.00;101950.28;4997139;28;20073;-74
2022/03/21 04:56:34;;;;;;;30.02;18.08;;;8.00;99.90;;;6.21;100.00;101952.28;4996387;28;20049;-74
2022/03/21 04:59:03;;;;;;;35.67;19.30;;;8.00;99.90;;;6.17;100.00;101956.19;4991402;28;20505;-74
2022/03/21 05:01:30;;;;;;;40.28;19.90;;;8.00;99.90;;;6.20;100.00;101957.78;4990161;28;20100;-74
2022/03/21 05:03:57;;;;;;;35.65;18.63;;;8.10;99.90;;;6.23;100.00;101954.84;4990866;28;20068;-75
2022/03/21 05:06:25;;;;;;;36.20;18.70;;;8.10;99.90;;;6.24;100.00;101957.44;4990507;28;20034;-74
2022/03/21 05:08:52;;;;;;;33.60;19.13;;;8.10;99.90;;;6.29;100.00;101958.94;4990836;28;20053;-74
2022/03/21 05:11:19;;;;;;;33.50;18.73;;;8.10;99.90;;;6.36;100.00;101963.72;4990015;28;20038;-74
2022/03/21 05:13:47;;;;;;;34.08;19.73;;;8.20;99.90;;;6.33;100.00;101966.66;4995492;28;20081;-74
2022/03/21 05:16:15;;;;;;;33.13;19.45;;;8.20;99.90;;;6.36;100.00;101973.66;4990576;28;20050;-74
2022/03/21 05:18:44;;;;;;;37.42;18.77;;;8.20;99.90;;;6.41;100.00;101976.88;5000376;28;20278;-74
2022/03/21 05:21:11;;;;;;;33.58;19.48;;;8.20;99.90;;;6.34;100.00;101967.50;5009480;28;20052;-74
2022/03/21 05:31:53;;;;;;;37.85;19.83;;;8.20;99.90;;;6.19;100.00;101981.28;4990954;28;20046;-73
2022/03/21 05:37:06;;;;;;;35.78;18.80;;;8.10;99.90;;;5.96;100.00;101974.94;4997886;28;20418;-75
2022/03/21 05:39:33;;;;;;;32.13;18.65;;;8.10;99.90;;;5.88;100.00;101970.09;4990127;28;20477;-75
2022/03/21 05:42:00;;;;;;;35.75;20.23;;;8.10;99.90;;;5.87;100.00;101970.22;4994292;28;20074;-75
2022/03/21 05:44:27;;;;;;;37.22;19.77;;;8.00;99.90;;;5.83;100.00;101979.53;4990133;28;20121;-75
2022/03/21 05:46:56;;;;;;;33.08;18.95;;;8.00;99.90;;;5.82;100.00;101973.25;4996536;28;20068;-75
2022/03/21 05:49:22;;;;;;;32.80;19.45;;;8.10;99.90;;;5.78;100.00;101979.03;4990015;28;20077;-75
2022/03/21 05:51:49;;;;;;;34.03;19.23;;;7.90;99.90;;;5.75;100.00;101992.75;4992330;28;20400;-75
2022/03/21 05:54:17;;;;;;;33.92;19.17;;;7.90;99.90;;;5.66;100.00;101983.53;4997851;28;20101;-75
2022/03/21 05:56:45;;;;;;;35.90;18.67;;;7.90;99.90;;;5.64;100.00;101988.19;4995149;28;20046;-75
2022/03/21 06:01:58;;;;;;;30.85;18.45;;;7.90;99.90;;;5.66;100.00;101994.34;5001045;28;20050;-74
2022/03/21 06:04:25;;;;;;;37.72;19.38;;;7.90;99.90;;;5.63;100.00;101999.94;4995674;28;20038;-75
2022/03/21 06:06:52;;;;;;;33.25;19.98;;;7.80;99.90;;;5.65;100.00;102006.09;5007461;28;20044;-75
2022/03/21 06:09:20;;;;;;;34.13;20.10;;;7.80;99.90;;;5.73;100.00;101995.59;5009202;28;20125;-75
2022/03/21 06:11:48;;;;;;;32.22;19.33;;;7.90;99.90;;;5.75;100.00;102006.25;5006785;28;20125;-75
2022/03/21 06:14:18;;;;;;;34.08;19.35;;;7.90;99.90;;;5.73;100.00;102006.41;4990659;28;20058;-75
2022/03/21 06:16:46;;;;;;;33.38;19.65;;;7.80;99.90;;;5.71;100.00;102002.94;4993815;28;20495;-75
2022/03/21 06:19:14;;;;;;;32.00;18.55;;;7.90;99.90;;;5.71;100.00;102012.88;5002703;28;20566;-75
2022/03/21 06:21:41;;;;;;;34.15;19.58;;;7.80;99.90;;;5.75;100.00;102015.25;4992359;28;20041;-75
2022/03/21 06:24:12;;;;;;;29.73;18.50;;;7.80;99.90;;;5.76;100.00;102010.69;4991847;28;20050;-75
2022/03/21 06:26:40;;;;;;;31.00;18.23;;;7.80;99.90;;;5.84;100.00;102016.38;4991440;28;20084;-74
2022/03/21 06:29:08;;;;;;;32.47;18.35;;;7.90;99.90;;;5.84;100.00;102013.66;5008954;28;20065;-75
2022/03/21 06:31:35;;;;;;;37.15;19.58;;;7.90;99.90;;;5.83;100.00;102020.91;5038870;23;20522;-73
2022/03/21 06:34:03;;;;;;;34.55;19.75;;;7.80;99.90;;;5.94;100.00;102025.53;5028641;28;20096;-73
2022/03/21 06:36:31;;;;;;;36.05;19.40;;;7.90;99.90;;;6.14;100.00;102029.41;5028092;28;20048;-73
2022/03/21 06:38:59;;;;;;;36.10;18.70;;;7.90;99.90;;;6.27;100.00;102023.91;5028616;28;20049;-73
2022/03/21 06:41:26;;;;;;;34.72;19.25;;;7.90;99.90;;;6.26;100.00;102025.78;5001605;28;20046;-74
2022/03/21 06:43:53;;;;;;;35.88;20.17;;;8.00;99.90;;;6.32;100.00;102028.97;4992762;28;20129;-73
2022/03/21 06:46:20;;;;;;;34.75;20.35;;;8.10;99.90;;;6.44;100.00;102028.03;5007173;28;20038;-73
2022/03/21 06:48:48;;;;;;;35.85;19.63;;;8.10;99.90;;;6.53;100.00;102029.13;5008053;28;20048;-73
2022/03/21 06:51:16;;;;;;;39.20;21.35;;;8.20;99.90;;;6.62;100.00;102029.25;5007972;28;20125;-72
2022/03/21 06:53:45;;;;;;;36.65;20.55;;;8.20;99.90;;;6.76;100.00;102030.00;5008523;28;20045;-73
2022/03/21 06:56:12;;;;;;;35.50;20.40;;;8.30;99.90;;;6.84;100.00;102025.72;5008176;28;20100;-73
2022/03/21 06:58:39;;;;;;;35.67;21.17;;;8.30;99.90;;;6.98;100.00;102027.28;5007144;28;20079;-73
2022/03/21 07:01:06;;;;;;;37.60;19.92;;;8.40;99.90;;;7.04;100.00;102031.34;5008213;28;20616;-73
2022/03/21 07:03:34;;;;;;;42.15;22.25;;;8.40;99.90;;;7.13;100.00;102036.03;5007839;28;20373;-73
2022/03/21 07:06:01;;;;;;;39.17;21.98;;;8.50;99.90;;;7.23;100.00;102025.31;5008472;28;20042;-73
2022/03/21 07:08:28;;;;;;;34.58;20.75;;;8.60;99.90;;;7.22;100.00;102029.00;5005120;28;20116;-73
2022/03/21 07:10:57;;;;;;;39.42;22.38;;;8.60;99.90;;;7.28;100.00;102041.19;5009784;28;20057;-73
2022/03/21 07:13:27;;;;;;;36.65;22.13;;;8.70;99.90;;;7.41;100.00;102040.06;5011914;28;20080;-73
2022/03/21 07:15:54;;;;;;;36.15;20.42;;;8.80;99.90;;;7.50;100.00;102042.97;5011391;28;20479;-73
2022/03/21 07:18:22;;;;;;;42.58;23.75;;;8.90;99.90;;;7.61;100.00;102040.25;5012301;28;20125;-74
2022/03/21 07:20:49;;;;;;;41.13;23.30;;;8.90;99.90;;;7.71;100.00;102041.22;5011602;28;20045;-75
2022/03/21 07:23:16;;;;;;;39.40;23.13;;;9.00;99.90;;;7.80;100.00;102045.84;5011183;28;20501;-74
2022/03/21 07:25:44;;;;;;;39.88;23.60;;;9.00;99.90;;;7.89;99.65;102044.22;5011460;28;20053;-74
2022/03/21 07:28:12;;;;;;;42.03;24.38;;;9.10;99.90;;;7.98;99.29;102037.16;5011536;28;20045;-74
2022/03/21 07:30:39;;;;;;;44.00;24.00;;;9.20;99.90;;;8.06;99.42;102031.94;5004444;28;20092;-75
2022/03/21 07:33:07;;;;;;;38.60;23.75;;;9.30;99.90;;;8.15;99.47;102033.03;4992093;28;20144;-75
2022/03/21 07:35:36;;;;;;;45.13;23.70;;;9.40;99.90;;;8.20;99.16;102042.44;4991754;28;20118;-75
2022/03/21 07:38:03;;;;;;;39.38;23.02;;;9.40;99.90;;;8.30;98.52;102036.25;4983166;28;20053;-74
2022/03/21 07:40:31;;;;;;;36.40;22.10;;;9.50;99.90;;;8.36;98.34;102036.59;4991440;28;20046;-75
2022/03/21 07:42:58;;;;;;;38.13;23.17;;;9.60;99.90;;;8.42;97.80;102037.94;4991779;28;20133;-74
2022/03/21 07:48:12;;;;;;;37.72;22.95;;;9.80;99.90;;;8.61;98.11;102046.19;4992194;28;20070;-74
2022/03/21 07:50:41;;;;;;;35.78;22.15;;;9.80;99.90;;;8.71;97.72;102040.81;4991381;28;20056;-75
2022/03/21 07:53:09;;;;;;;39.58;22.63;;;9.90;99.90;;;8.81;97.14;102040.84;4991993;28;20457;-74
2022/03/21 07:55:37;;;;;;;38.60;21.85;;;10.00;99.90;;;8.92;96.63;102037.22;4991464;28;20165;-73
2022/03/21 07:58:04;;;;;;;36.38;21.73;;;10.10;99.90;;;9.05;96.23;102042.41;4991448;28;20042;-74
2022/03/21 08:00:33;;;;;;;37.33;21.63;;;10.20;99.90;;;9.16;95.56;102045.88;4991341;28;20049;-75
2022/03/21 08:03:00;;;;;;;35.45;21.30;;;10.30;99.90;;;9.26;94.84;102048.63;4991642;28;20081;-76
2022/03/21 08:05:29;;;;;;;40.45;21.15;;;10.40;99.90;;;9.36;93.97;102040.50;4991921;28;20066;-74
2022/03/21 08:07:56;;;;;;;32.72;20.33;;;10.50;99.70;;;9.43;94.14;102044.38;4991288;28;20042;-75
2022/03/21 08:10:24;;;;;;;32.45;20.27;;;10.60;99.50;;;9.51;92.49;102049.97;4991252;28;20743;-75
2022/03/21 08:12:51;;;;;;;33.75;20.60;;;10.70;98.70;;;9.58;92.64;102050.28;4991097;28;20042;-74
2022/03/21 08:15:18;;;;;;;34.22;20.30;;;10.80;97.60;;;9.67;91.71;102054.00;4991300;28;20043;-75
2022/03/21 08:17:52;;;;;;;32.10;18.90;;;10.80;97.70;;;9.76;91.75;102054.00;4991095;28;20057;-75
2022/03/21 08:20:20;;;;;;;30.33;18.10;;;10.90;96.30;;;9.87;91.05;102060.34;4973534;28;20046;-75
2022/03/21 08:22:48;;;;;;;29.92;19.00;;;11.00;95.50;;;10.01;89.55;102046.28;4990749;28;20046;-74
2022/03/21 08:25:16;;;;;;;30.77;18.75;;;11.10;95.60;;;10.12;87.57;102048.88;4991049;28;20567;-75
2022/03/21 08:27:44;;;;;;;29.90;18.25;;;11.20;92.30;;;10.23;86.58;102053.31;4990990;28;20038;-75
2022/03/21 08:30:13;;;;;;;27.08;16.52;;;11.30;91.20;;;10.31;84.95;102052.63;4990937;28;20046;-75
2022/03/21 08:32:41;;;;;;;26.38;16.25;;;11.50;88.30;;;10.39;80.52;102049.16;4991195;28;20054;-75
2022/03/21 08:35:11;;;;;;;30.05;17.63;;;11.60;86.80;;;10.51;79.43;102048.88;4991130;28;20039;-76
2022/03/21 08:37:38;;;;;;;29.23;17.23;;;11.70;86.70;;;10.61;81.71;102046.13;4990251;28;20049;-76
2022/03/21 08:40:07;;;;;;;30.95;16.95;;;11.90;86.10;;;10.69;79.97;102050.84;4990530;28;20113;-76
2022/03/21 08:42:34;;;;;;;27.52;17.13;;;11.90;84.50;;;10.79;78.18;102059.81;4990359;28;20070;-75
2022/03/21 08:45:01;;;;;;;31.33;17.27;;;12.10;84.00;;;10.87;75.28;102057.22;4991192;28;20121;-76
2022/03/21 08:47:29;;;;;;;27.55;16.90;;;12.20;83.40;;;10.94;74.90;102055.59;4990653;28;20046;-76
2022/03/21 08:49:57;;;;;;;27.15;16.58;;;12.20;81.70;;;10.95;75.86;102048.31;4990223;28;20038;-76
2022/03/21 08:52:25;;;;;;;25.92;16.90;;;12.30;80.60;;;11.04;73.92;102054.72;4971640;28;20566;-76
2022/03/21 08:54:53;;;;;;;29.75;17.08;;;12.30;80.50;;;11.14;73.55;102052.81;4990834;28;20042;-76
2022/03/21 08:57:20;;;;;;;27.73;16.23;;;12.40;81.80;;;11.23;71.99;102048.31;4989727;28;20034;-76
2022/03/21 08:59:47;;;;;;;27.23;16.55;;;12.50;79.40;;;11.32;73.52;102051.00;4987712;28;20096;-76
2022/03/21 09:02:15;;;;;;;27.65;16.33;;;12.60;81.70;;;11.35;72.71;102056.16;4978516;28;20058;-75
2022/03/21 09:04:42;;;;;;;26.33;16.80;;;12.70;80.60;;;11.37;72.10;102058.72;4986032;28;20097;-76
2022/03/21 09:07:09;;;;;;;29.25;16.95;;;12.70;80.00;;;11.42;71.28;102053.66;4985575;28;20539;-76
2022/03/21 09:09:38;;;;;;;26.95;16.42;;;12.80;79.20;;;11.50;71.91;102048.31;4975604;28;20065;-76
2022/03/21 09:12:07;;;;;;;24.88;16.38;;;12.90;79.80;;;11.58;71.80;102060.34;4987271;28;20046;-76
2022/03/21 09:14:34;;;;;;;27.98;17.02;;;12.90;79.00;;;11.64;71.27;102052.38;4970003;28;20547;-76
2022/03/21 09:17:04;;;;;;;28.55;16.98;;;13.00;78.80;;;11.70;71.06;102050.91;4989287;28;20100;-80
2022/03/21 09:19:31;;;;;;;27.48;17.05;;;13.10;78.10;;;11.75;70.52;102048.59;4989060;28;20105;-76
2022/03/21 09:21:59;;;;;;;26.40;16.88;;;13.10;76.90;;;11.80;70.37;102051.69;4988995;28;20052;-76
2022/03/21 09:24:27;;;;;;;25.08;16.15;;;13.20;78.90;;;11.88;68.40;102053.63;4983855;28;20046;-76
2022/03/21 09:26:55;;;;;;;26.42;16.98;;;13.20;78.50;;;11.89;68.22;102044.47;4989045;28;20144;-76
2022/03/21 09:29:23;;;;;;;30.52;17.17;;;13.30;76.20;;;11.93;67.05;102043.16;4985900;28;20053;-76
2022/03/21 09:31:50;;;;;;;26.85;17.38;;;13.30;76.60;;;11.99;68.49;102037.06;4988174;28;20038;-76
2022/03/21 09:34:19;;;;;;;30.13;16.85;;;13.40;77.50;;;12.03;67.11;102043.97;4980919;28;20109;-76
2022/03/21 09:36:47;;;;;;;28.42;17.23;;;13.40;75.80;;;12.04;67.16;102042.94;4987941;28;20590;-76
2022/03/21 09:39:15;;;;;;;27.80;16.33;;;13.40;73.90;;;12.04;65.58;102036.63;4986623;28;20161;-76
2022/03/21 09:41:44;;;;;;;27.10;17.38;;;13.40;74.00;;;12.06;65.39;102038.16;4988255;28;20078;-76
2022/03/21 09:44:13;;;;;;;25.85;16.45;;;13.40;75.70;;;12.12;65.21;102036.69;4985211;28;20108;-76
2022/03/21 09:46:43;;;;;;;24.80;15.98;;;13.50;75.00;;;12.17;65.82;102036.22;4989746;28;20045;-76
2022/03/21 09:49:15;;;;;;;28.38;16.30;;;13.50;74.80;;;12.21;64.81;102034.91;4987605;28;20046;-76
2022/03/21 09:51:43;;;;;;;26.00;16.23;;;13.60;74.30;;;12.23;65.14;102036.44;4988661;28;20634;-76
2022/03/21 09:54:11;;;;;;;33.58;17.35;;;13.60;74.20;;;12.27;64.81;102036.97;4979799;28;20074;-76
2022/03/21 09:56:38;;;;;;;29.55;16.92;;;13.60;75.20;;;12.31;64.80;102038.38;4972660;28;20072;-76
2022/03/21 09:59:05;;;;;;;28.85;16.98;;;13.70;75.00;;;12.41;64.35;102028.19;4977526;28;20043;-76
2022/03/21 10:01:36;;;;;;;29.98;16.67;;;13.70;74.90;;;12.54;64.47;102026.94;4979853;28;20137;-76
2022/03/21 10:04:06;;;;;;;27.05;16.23;;;13.80;76.30;;;12.59;64.76;102025.44;4982033;28;20587;-76
2022/03/21 10:06:35;;;;;;;28.58;17.20;;;13.90;76.60;;;12.64;64.38;102027.69;4987964;28;20038;-76
2022/03/21 10:09:08;;;;;;;28.33;17.20;;;14.00;74.70;;;12.65;64.20;102026.66;4988365;28;20042;-76
2022/03/21 10:11:36;;;;;;;26.98;16.02;;;14.00;74.60;;;12.71;64.30;102023.28;4967978;28;20042;-76
2022/03/21 10:14:25;;;;;;;27.10;16.52;;;14.10;74.00;;;12.70;63.99;102021.59;4984090;28;20042;-76
2022/03/21 10:16:56;;;;;;;28.75;16.70;;;14.00;73.90;;;12.74;63.90;102022.09;4988697;28;20050;-76
2022/03/21 10:19:24;;;;;;;26.58;17.30;;;14.10;74.50;;;12.78;63.93;102024.38;4981827;28;20049;-76
2022/03/21 10:22:08;;;;;;;31.77;17.10;;;14.10;75.90;;;12.82;64.64;102019.44;4987097;28;20116;-76
2022/03/21 10:24:41;;;;;;;28.15;16.13;;;14.20;76.00;;;12.89;64.55;102020.50;4974174;28;20046;-76
2022/03/21 10:27:27;;;;;;;29.58;16.95;;;14.20;74.90;;;12.88;64.33;102014.16;4987398;28;20050;-76
2022/03/21 10:30:00;;;;;;;29.75;16.58;;;14.20;74.40;;;12.88;63.08;102016.91;4986604;28;20046;-76